sensor_id;sensor_type;location;lat;lon;timestamp;temperature;humidity
44775;DHT22;31340;51.402;0.016;2023-07-29T00:01:10;19.90;99.90
44775;DHT22;31340;51.402;0.016;2023-07-29T00:03:37;19.90;99.90
44775;DHT22;31340;51.402;0.016;2023-07-29T00:06:05;19.90;99.90
44775;DHT22;31340;51.402;0.016;2023-07-29T00:08:32;19.80;99.90
44775;DHT22;31340;51.402;0.016;2023-07-29T00:11:00;19.90;99.90
44775;DHT22;31340;51.402;0.016;2023-07-29T00:13:27;19.80;99.90
44775;DHT22;31340;51.402;0.016;2023-07-29T00:15:55;19.80;99.90
44775;DHT22;31340;51.402;0.016;2023-07-29T00:18:25;19.80;99.90
44775;DHT22;31340;51.402;0.016;2023-07-29T00:20:53;19.80;99.90
44775;DHT22;31340;51.402;0.016;2023-07-29T00:23:20;19.70;99.90
44775;DHT22;31340;51.402;0.016;2023-07-29T00:25:48;19.70;99.90
44775;DHT22;31340;51.402;0.016;2023-07-29T00:28:16;19.70;99.90
44775;DHT22;31340;51.402;0.016;2023-07-29T00:30:49;19.70;99.90
44775;DHT22;31340;51.402;0.016;2023-07-29T00:33:22;19.60;99.90
44775;DHT22;31340;51.402;0.016;2023-07-29T00:35:49;19.60;99.90
44775;DHT22;31340;51.402;0.016;2023-07-29T00:38:17;19.60;99.90
44775;DHT22;31340;51.402;0.016;2023-07-29T00:40:44;19.50;99.90
44775;DHT22;31340;51.402;0.016;2023-07-29T00:43:12;19.50;99.90
44775;DHT22;31340;51.402;0.016;2023-07-29T00:45:41;19.50;99.90
44775;DHT22;31340;51.402;0.016;2023-07-29T00:48:10;19.50;99.90
44775;DHT22;31340;51.402;0.016;2023-07-29T00:50:40;19.40;99.90
44775;DHT22;31340;51.402;0.016;2023-07-29T00:53:08;19.40;99.90
44775;DHT22;31340;51.402;0.016;2023-07-29T00:55:36;19.40;99.90
44775;DHT22;31340;51.402;0.016;2023-07-29T00:58:04;19.40;99.90
44775;DHT22;31340;51.402;0.016;2023-07-29T01:00:32;19.40;99.90
44775;DHT22;31340;51.402;0.016;2023-07-29T01:03:03;19.40;99.90
44775;DHT22;31340;51.402;0.016;2023-07-29T01:05:39;19.30;99.90
44775;DHT22;31340;51.402;0.016;2023-07-29T01:13:48;19.30;99.90
44775;DHT22;31340;51.402;0.016;2023-07-29T01:16:22;19.20;99.90
44775;DHT22;31340;51.402;0.016;2023-07-29T01:18:53;19.20;99.90
44775;DHT22;31340;51.402;0.016;2023-07-29T01:21:26;19.20;99.90
44775;DHT22;31340;51.402;0.016;2023-07-29T01:23:58;19.20;99.90
44775;DHT22;31340;51.402;0.016;2023-07-29T01:26:26;19.20;99.90
44775;DHT22;31340;51.402;0.016;2023-07-29T01:28:56;19.20;99.90
44775;DHT22;31340;51.402;0.016;2023-07-29T01:31:34;19.20;99.90
44775;DHT22;31340;51.402;0.016;2023-07-29T01:34:28;19.20;99.90
44775;DHT22;31340;51.402;0.016;2023-07-29T01:36:59;19.20;99.90
44775;DHT22;31340;51.402;0.016;2023-07-29T01:39:32;19.20;99.90
44775;DHT22;31340;51.402;0.016;2023-07-29T01:42:00;19.20;99.90
44775;DHT22;31340;51.402;0.016;2023-07-29T01:44:28;19.20;99.90
44775;DHT22;31340;51.402;0.016;2023-07-29T01:46:56;19.10;99.90
44775;DHT22;31340;51.402;0.016;2023-07-29T01:49:24;19.10;99.90
44775;DHT22;31340;51.402;0.016;2023-07-29T01:51:52;19.10;99.90
44775;DHT22;31340;51.402;0.016;2023-07-29T01:54:19;19.10;99.90
44775;DHT22;31340;51.402;0.016;2023-07-29T01:56:47;19.10;99.90
44775;DHT22;31340;51.402;0.016;2023-07-29T01:59:14;19.10;99.90
44775;DHT22;31340;51.402;0.016;2023-07-29T02:01:43;19.10;99.90
44775;DHT22;31340;51.402;0.016;2023-07-29T02:04:12;19.10;99.90
44775;DHT22;31340;51.402;0.016;2023-07-29T02:06:39;19.10;99.90
44775;DHT22;31340;51.402;0.016;2023-07-29T02:09:07;19.00;99.90
44775;DHT22;31340;51.402;0.016;2023-07-29T02:11:35;19.00;99.90
44775;DHT22;31340;51.402;0.016;2023-07-29T02:14:02;19.00;99.90
44775;DHT22;31340;51.402;0.016;2023-07-29T02:16:30;19.00;99.90
44775;DHT22;31340;51.402;0.016;2023-07-29T02:19:00;19.00;99.90
44775;DHT22;31340;51.402;0.016;2023-07-29T02:21:27;18.90;99.90
44775;DHT22;31340;51.402;0.016;2023-07-29T02:23:55;18.90;99.90
44775;DHT22;31340;51.402;0.016;2023-07-29T02:26:23;18.90;99.90
44775;DHT22;31340;51.402;0.016;2023-07-29T02:28:50;18.90;99.90
44775;DHT22;31340;51.402;0.016;2023-07-29T02:31:21;18.90;99.90
44775;DHT22;31340;51.402;0.016;2023-07-29T02:33:49;18.80;99.90
44775;DHT22;31340;51.402;0.016;2023-07-29T02:36:18;18.80;99.90
44775;DHT22;31340;51.402;0.016;2023-07-29T02:38:46;18.70;99.90
44775;DHT22;31340;51.402;0.016;2023-07-29T02:41:14;18.70;99.90
44775;DHT22;31340;51.402;0.016;2023-07-29T02:43:47;18.70;99.90
44775;DHT22;31340;51.402;0.016;2023-07-29T02:46:15;18.70;99.90
44775;DHT22;31340;51.402;0.016;2023-07-29T02:48:44;18.70;99.90
44775;DHT22;31340;51.402;0.016;2023-07-29T02:51:12;18.80;99.90
44775;DHT22;31340;51.402;0.016;2023-07-29T02:53:39;18.70;99.90
44775;DHT22;31340;51.402;0.016;2023-07-29T02:56:07;18.70;99.90
44775;DHT22;31340;51.402;0.016;2023-07-29T02:58:37;18.70;99.90
44775;DHT22;31340;51.402;0.016;2023-07-29T03:01:05;18.70;99.90
44775;DHT22;31340;51.402;0.016;2023-07-29T03:03:34;18.70;99.90
44775;DHT22;31340;51.402;0.016;2023-07-29T03:06:08;18.70;99.90
44775;DHT22;31340;51.402;0.016;2023-07-29T03:08:36;18.70;99.90
44775;DHT22;31340;51.402;0.016;2023-07-29T03:11:12;18.70;99.90
44775;DHT22;31340;51.402;0.016;2023-07-29T03:13:40;18.60;99.90
44775;DHT22;31340;51.402;0.016;2023-07-29T03:16:14;18.60;99.90
44775;DHT22;31340;51.402;0.016;2023-07-29T03:18:48;18.60;99.90
44775;DHT22;31340;51.402;0.016;2023-07-29T03:21:16;18.60;99.90
44775;DHT22;31340;51.402;0.016;2023-07-29T03:23:43;18.60;99.90
44775;DHT22;31340;51.402;0.016;2023-07-29T03:26:11;18.60;99.90
44775;DHT22;31340;51.402;0.016;2023-07-29T03:28:42;18.60;99.90
44775;DHT22;31340;51.402;0.016;2023-07-29T03:31:10;18.60;99.90
44775;DHT22;31340;51.402;0.016;2023-07-29T03:33:38;18.60;99.90
44775;DHT22;31340;51.402;0.016;2023-07-29T03:36:06;18.60;99.90
44775;DHT22;31340;51.402;0.016;2023-07-29T03:38:34;18.60;99.90
44775;DHT22;31340;51.402;0.016;2023-07-29T03:41:03;18.60;99.90
44775;DHT22;31340;51.402;0.016;2023-07-29T03:43:31;18.60;99.90
44775;DHT22;31340;51.402;0.016;2023-07-29T03:46:01;18.60;99.90
44775;DHT22;31340;51.402;0.016;2023-07-29T03:48:29;18.70;99.90
44775;DHT22;31340;51.402;0.016;2023-07-29T03:50:59;18.70;99.90
44775;DHT22;31340;51.402;0.016;2023-07-29T03:53:26;18.60;99.90
44775;DHT22;31340;51.402;0.016;2023-07-29T03:55:54;18.70;99.90
44775;DHT22;31340;51.402;0.016;2023-07-29T03:58:22;18.70;99.90
44775;DHT22;31340;51.402;0.016;2023-07-29T04:00:49;18.70;99.90
44775;DHT22;31340;51.402;0.016;2023-07-29T04:03:17;18.70;99.90
44775;DHT22;31340;51.402;0.016;2023-07-29T04:05:45;18.60;99.90
44775;DHT22;31340;51.402;0.016;2023-07-29T04:08:13;18.70;99.90
44775;DHT22;31340;51.402;0.016;2023-07-29T04:10:41;18.70;99.90
44775;DHT22;31340;51.402;0.016;2023-07-29T04:13:09;18.70;99.90
44775;DHT22;31340;51.402;0.016;2023-07-29T04:15:36;18.70;99.90
44775;DHT22;31340;51.402;0.016;2023-07-29T04:18:04;18.70;99.90
44775;DHT22;31340;51.402;0.016;2023-07-29T04:20:32;18.70;99.90
44775;DHT22;31340;51.402;0.016;2023-07-29T04:23:01;18.70;99.90
44775;DHT22;31340;51.402;0.016;2023-07-29T04:25:29;18.70;99.90
44775;DHT22;31340;51.402;0.016;2023-07-29T04:27:57;18.70;99.90
44775;DHT22;31340;51.402;0.016;2023-07-29T04:30:27;18.70;99.90
44775;DHT22;31340;51.402;0.016;2023-07-29T04:32:54;18.70;99.90
44775;DHT22;31340;51.402;0.016;2023-07-29T04:35:22;18.70;99.90
44775;DHT22;31340;51.402;0.016;2023-07-29T04:37:50;18.70;99.90
44775;DHT22;31340;51.402;0.016;2023-07-29T04:40:18;18.70;99.90
44775;DHT22;31340;51.402;0.016;2023-07-29T04:42:45;18.70;99.90
44775;DHT22;31340;51.402;0.016;2023-07-29T04:45:13;18.70;99.90
44775;DHT22;31340;51.402;0.016;2023-07-29T04:47:41;18.70;99.90
44775;DHT22;31340;51.402;0.016;2023-07-29T04:50:09;18.70;99.90
44775;DHT22;31340;51.402;0.016;2023-07-29T04:52:37;18.70;99.90
44775;DHT22;31340;51.402;0.016;2023-07-29T04:55:05;18.70;99.90
44775;DHT22;31340;51.402;0.016;2023-07-29T04:57:33;18.70;99.90
44775;DHT22;31340;51.402;0.016;2023-07-29T05:00:02;18.70;99.90
44775;DHT22;31340;51.402;0.016;2023-07-29T05:02:30;18.70;99.90
44775;DHT22;31340;51.402;0.016;2023-07-29T05:04:58;18.70;99.90
44775;DHT22;31340;51.402;0.016;2023-07-29T05:07:26;18.70;99.90
44775;DHT22;31340;51.402;0.016;2023-07-29T05:09:54;18.70;99.90
44775;DHT22;31340;51.402;0.016;2023-07-29T05:12:22;18.60;99.90
44775;DHT22;31340;51.402;0.016;2023-07-29T05:14:49;18.70;99.90
44775;DHT22;31340;51.402;0.016;2023-07-29T05:17:17;18.70;99.90
44775;DHT22;31340;51.402;0.016;2023-07-29T05:19:45;18.60;99.90
44775;DHT22;31340;51.402;0.016;2023-07-29T05:22:12;18.60;99.90
44775;DHT22;31340;51.402;0.016;2023-07-29T05:24:40;18.60;99.90
44775;DHT22;31340;51.402;0.016;2023-07-29T05:27:08;18.60;99.90
44775;DHT22;31340;51.402;0.016;2023-07-29T05:29:36;18.60;99.90
44775;DHT22;31340;51.402;0.016;2023-07-29T05:32:04;18.60;99.90
44775;DHT22;31340;51.402;0.016;2023-07-29T05:34:32;18.60;99.90
44775;DHT22;31340;51.402;0.016;2023-07-29T05:37:00;18.60;99.90
44775;DHT22;31340;51.402;0.016;2023-07-29T05:39:28;18.60;99.90
44775;DHT22;31340;51.402;0.016;2023-07-29T05:41:56;18.60;99.90
44775;DHT22;31340;51.402;0.016;2023-07-29T05:44:24;18.60;99.90
44775;DHT22;31340;51.402;0.016;2023-07-29T05:46:51;18.50;99.90
44775;DHT22;31340;51.402;0.016;2023-07-29T05:49:21;18.50;99.90
44775;DHT22;31340;51.402;0.016;2023-07-29T05:51:49;18.50;99.90
44775;DHT22;31340;51.402;0.016;2023-07-29T05:54:19;18.50;99.90
44775;DHT22;31340;51.402;0.016;2023-07-29T05:56:47;18.50;99.90
44775;DHT22;31340;51.402;0.016;2023-07-29T05:59:14;18.50;99.90
44775;DHT22;31340;51.402;0.016;2023-07-29T06:01:42;18.50;99.90
44775;DHT22;31340;51.402;0.016;2023-07-29T06:04:10;18.50;99.90
44775;DHT22;31340;51.402;0.016;2023-07-29T06:06:38;18.50;99.90
44775;DHT22;31340;51.402;0.016;2023-07-29T06:09:06;18.50;99.90
44775;DHT22;31340;51.402;0.016;2023-07-29T06:11:33;18.50;99.90
44775;DHT22;31340;51.402;0.016;2023-07-29T06:14:01;18.50;99.90
44775;DHT22;31340;51.402;0.016;2023-07-29T06:16:29;18.50;99.90
44775;DHT22;31340;51.402;0.016;2023-07-29T06:18:57;18.50;99.90
44775;DHT22;31340;51.402;0.016;2023-07-29T06:21:25;18.50;99.90
44775;DHT22;31340;51.402;0.016;2023-07-29T06:23:52;18.50;99.90
44775;DHT22;31340;51.402;0.016;2023-07-29T06:26:20;18.50;99.90
44775;DHT22;31340;51.402;0.016;2023-07-29T06:28:48;18.50;99.90
44775;DHT22;31340;51.402;0.016;2023-07-29T06:31:15;18.60;99.90
44775;DHT22;31340;51.402;0.016;2023-07-29T06:33:43;18.50;99.90
44775;DHT22;31340;51.402;0.016;2023-07-29T06:36:11;18.60;99.90
44775;DHT22;31340;51.402;0.016;2023-07-29T06:38:39;18.60;99.90
44775;DHT22;31340;51.402;0.016;2023-07-29T06:41:07;18.60;99.90
44775;DHT22;31340;51.402;0.016;2023-07-29T06:43:35;18.60;99.90
44775;DHT22;31340;51.402;0.016;2023-07-29T06:46:02;18.60;99.90
44775;DHT22;31340;51.402;0.016;2023-07-29T06:48:30;18.60;99.90
44775;DHT22;31340;51.402;0.016;2023-07-29T06:50:58;18.70;99.90
44775;DHT22;31340;51.402;0.016;2023-07-29T06:53:28;18.70;99.90
44775;DHT22;31340;51.402;0.016;2023-07-29T06:55:55;18.70;99.90
44775;DHT22;31340;51.402;0.016;2023-07-29T06:58:23;18.70;99.90
44775;DHT22;31340;51.402;0.016;2023-07-29T07:00:50;18.70;99.90
44775;DHT22;31340;51.402;0.016;2023-07-29T07:03:18;18.80;99.90
44775;DHT22;31340;51.402;0.016;2023-07-29T07:05:46;18.80;99.90
44775;DHT22;31340;51.402;0.016;2023-07-29T07:08:13;18.90;99.90
44775;DHT22;31340;51.402;0.016;2023-07-29T07:10:41;18.80;99.90
44775;DHT22;31340;51.402;0.016;2023-07-29T07:13:08;18.90;99.90
44775;DHT22;31340;51.402;0.016;2023-07-29T07:15:36;18.90;99.90
44775;DHT22;31340;51.402;0.016;2023-07-29T07:18:04;19.00;99.90
44775;DHT22;31340;51.402;0.016;2023-07-29T07:20:32;19.10;99.90
44775;DHT22;31340;51.402;0.016;2023-07-29T07:23:00;19.10;99.90
44775;DHT22;31340;51.402;0.016;2023-07-29T07:25:28;19.20;99.90
44775;DHT22;31340;51.402;0.016;2023-07-29T07:27:55;19.30;99.90
44775;DHT22;31340;51.402;0.016;2023-07-29T07:30:23;19.40;99.90
44775;DHT22;31340;51.402;0.016;2023-07-29T07:32:51;19.40;99.90
44775;DHT22;31340;51.402;0.016;2023-07-29T07:35:19;19.50;99.90
44775;DHT22;31340;51.402;0.016;2023-07-29T07:37:47;19.60;99.90
44775;DHT22;31340;51.402;0.016;2023-07-29T07:40:14;19.70;99.90
44775;DHT22;31340;51.402;0.016;2023-07-29T07:42:42;19.70;99.90
44775;DHT22;31340;51.402;0.016;2023-07-29T07:45:10;19.80;99.90
44775;DHT22;31340;51.402;0.016;2023-07-29T07:47:38;19.80;99.90
44775;DHT22;31340;51.402;0.016;2023-07-29T07:50:05;19.90;99.90
44775;DHT22;31340;51.402;0.016;2023-07-29T07:52:33;19.90;99.90
44775;DHT22;31340;51.402;0.016;2023-07-29T07:55:01;20.00;99.90
44775;DHT22;31340;51.402;0.016;2023-07-29T07:57:29;20.00;99.90
44775;DHT22;31340;51.402;0.016;2023-07-29T07:59:57;20.10;99.90
44775;DHT22;31340;51.402;0.016;2023-07-29T08:02:24;20.10;99.90
44775;DHT22;31340;51.402;0.016;2023-07-29T08:04:52;20.20;99.90
44775;DHT22;31340;51.402;0.016;2023-07-29T08:07:20;20.20;99.90
44775;DHT22;31340;51.402;0.016;2023-07-29T08:09:47;20.20;99.90
44775;DHT22;31340;51.402;0.016;2023-07-29T08:12:15;20.30;99.90
44775;DHT22;31340;51.402;0.016;2023-07-29T08:14:46;20.30;99.90
44775;DHT22;31340;51.402;0.016;2023-07-29T08:17:15;20.40;99.90
44775;DHT22;31340;51.402;0.016;2023-07-29T08:19:42;20.40;99.90
44775;DHT22;31340;51.402;0.016;2023-07-29T08:22:11;20.50;99.90
44775;DHT22;31340;51.402;0.016;2023-07-29T08:24:39;20.60;99.90
44775;DHT22;31340;51.402;0.016;2023-07-29T08:27:07;20.70;99.90
44775;DHT22;31340;51.402;0.016;2023-07-29T08:29:35;20.70;99.90
44775;DHT22;31340;51.402;0.016;2023-07-29T08:32:03;20.70;99.90
44775;DHT22;31340;51.402;0.016;2023-07-29T08:34:30;20.80;99.90
44775;DHT22;31340;51.402;0.016;2023-07-29T08:36:58;20.90;99.90
44775;DHT22;31340;51.402;0.016;2023-07-29T08:39:27;20.90;99.90
44775;DHT22;31340;51.402;0.016;2023-07-29T08:42:03;21.00;99.90
44775;DHT22;31340;51.402;0.016;2023-07-29T08:44:41;21.10;99.90
44775;DHT22;31340;51.402;0.016;2023-07-29T08:47:09;21.20;99.90
44775;DHT22;31340;51.402;0.016;2023-07-29T08:49:38;21.20;99.90
44775;DHT22;31340;51.402;0.016;2023-07-29T08:52:06;21.30;99.90
44775;DHT22;31340;51.402;0.016;2023-07-29T08:54:35;21.30;99.90
44775;DHT22;31340;51.402;0.016;2023-07-29T08:57:03;21.30;99.90
44775;DHT22;31340;51.402;0.016;2023-07-29T08:59:31;21.20;99.90
44775;DHT22;31340;51.402;0.016;2023-07-29T09:01:59;21.20;99.90
44775;DHT22;31340;51.402;0.016;2023-07-29T09:04:28;21.10;99.90
44775;DHT22;31340;51.402;0.016;2023-07-29T09:06:56;21.10;99.90
44775;DHT22;31340;51.402;0.016;2023-07-29T09:09:25;21.00;99.90
44775;DHT22;31340;51.402;0.016;2023-07-29T09:11:53;20.90;99.90
44775;DHT22;31340;51.402;0.016;2023-07-29T09:14:21;20.80;99.90
44775;DHT22;31340;51.402;0.016;2023-07-29T09:16:49;20.70;99.90
44775;DHT22;31340;51.402;0.016;2023-07-29T09:19:17;20.70;99.90
44775;DHT22;31340;51.402;0.016;2023-07-29T09:21:46;20.70;99.90
44775;DHT22;31340;51.402;0.016;2023-07-29T09:24:16;20.60;99.90
44775;DHT22;31340;51.402;0.016;2023-07-29T09:26:51;20.60;99.90
44775;DHT22;31340;51.402;0.016;2023-07-29T09:29:22;20.60;99.90
44775;DHT22;31340;51.402;0.016;2023-07-29T09:31:50;20.50;99.90
44775;DHT22;31340;51.402;0.016;2023-07-29T09:34:18;20.50;99.90
44775;DHT22;31340;51.402;0.016;2023-07-29T09:36:46;20.50;99.90
44775;DHT22;31340;51.402;0.016;2023-07-29T09:39:14;20.60;99.90
44775;DHT22;31340;51.402;0.016;2023-07-29T09:41:47;20.60;99.90
44775;DHT22;31340;51.402;0.016;2023-07-29T09:44:16;20.60;99.90
44775;DHT22;31340;51.402;0.016;2023-07-29T09:46:45;20.70;99.90
44775;DHT22;31340;51.402;0.016;2023-07-29T09:49:13;20.80;99.90
44775;DHT22;31340;51.402;0.016;2023-07-29T09:51:41;20.90;99.90
44775;DHT22;31340;51.402;0.016;2023-07-29T09:54:10;20.90;99.90
44775;DHT22;31340;51.402;0.016;2023-07-29T09:56:42;21.10;99.90
44775;DHT22;31340;51.402;0.016;2023-07-29T09:59:12;21.10;99.90
44775;DHT22;31340;51.402;0.016;2023-07-29T10:01:42;21.20;99.90
44775;DHT22;31340;51.402;0.016;2023-07-29T10:04:11;21.20;99.90
44775;DHT22;31340;51.402;0.016;2023-07-29T10:06:41;21.30;99.90
44775;DHT22;31340;51.402;0.016;2023-07-29T10:09:11;21.40;99.90
44775;DHT22;31340;51.402;0.016;2023-07-29T10:11:40;21.40;99.90
44775;DHT22;31340;51.402;0.016;2023-07-29T10:14:09;21.50;99.90
44775;DHT22;31340;51.402;0.016;2023-07-29T10:16:37;21.50;99.60
44775;DHT22;31340;51.402;0.016;2023-07-29T10:19:07;21.60;98.70
44775;DHT22;31340;51.402;0.016;2023-07-29T10:21:38;21.70;98.20
44775;DHT22;31340;51.402;0.016;2023-07-29T10:24:10;21.90;97.40
44775;DHT22;31340;51.402;0.016;2023-07-29T10:26:43;22.00;97.00
44775;DHT22;31340;51.402;0.016;2023-07-29T10:29:13;22.20;96.70
44775;DHT22;31340;51.402;0.016;2023-07-29T10:31:43;22.40;96.30
44775;DHT22;31340;51.402;0.016;2023-07-29T10:34:12;22.50;95.80
44775;DHT22;31340;51.402;0.016;2023-07-29T10:36:41;22.70;95.20
44775;DHT22;31340;51.402;0.016;2023-07-29T10:39:09;22.90;94.80
44775;DHT22;31340;51.402;0.016;2023-07-29T10:41:57;23.00;93.90
44775;DHT22;31340;51.402;0.016;2023-07-29T10:47:15;23.40;92.80
44775;DHT22;31340;51.402;0.016;2023-07-29T10:49:44;23.50;92.30
44775;DHT22;31340;51.402;0.016;2023-07-29T10:52:14;23.70;92.10
44775;DHT22;31340;51.402;0.016;2023-07-29T10:54:47;23.90;91.10
44775;DHT22;31340;51.402;0.016;2023-07-29T10:57:30;24.00;90.70
44775;DHT22;31340;51.402;0.016;2023-07-29T10:59:58;24.20;89.80
44775;DHT22;31340;51.402;0.016;2023-07-29T11:02:31;24.40;88.80
44775;DHT22;31340;51.402;0.016;2023-07-29T11:05:08;24.60;88.00
44775;DHT22;31340;51.402;0.016;2023-07-29T11:07:48;24.80;86.00
44775;DHT22;31340;51.402;0.016;2023-07-29T11:10:16;25.00;84.40
44775;DHT22;31340;51.402;0.016;2023-07-29T11:12:51;25.10;83.10
44775;DHT22;31340;51.402;0.016;2023-07-29T11:15:26;25.20;82.00
44775;DHT22;31340;51.402;0.016;2023-07-29T11:18:01;25.30;82.90
44775;DHT22;31340;51.402;0.016;2023-07-29T11:20:31;25.40;81.40
44775;DHT22;31340;51.402;0.016;2023-07-29T11:23:01;25.40;80.90
44775;DHT22;31340;51.402;0.016;2023-07-29T11:25:30;25.40;80.30
44775;DHT22;31340;51.402;0.016;2023-07-29T11:28:00;25.30;80.60
44775;DHT22;31340;51.402;0.016;2023-07-29T11:30:32;25.20;81.40
44775;DHT22;31340;51.402;0.016;2023-07-29T11:33:01;25.20;81.40
44775;DHT22;31340;51.402;0.016;2023-07-29T11:35:29;25.10;81.10
44775;DHT22;31340;51.402;0.016;2023-07-29T11:37:56;25.20;79.80
44775;DHT22;31340;51.402;0.016;2023-07-29T11:40:24;25.20;77.60
44775;DHT22;31340;51.402;0.016;2023-07-29T11:42:53;25.30;78.00
44775;DHT22;31340;51.402;0.016;2023-07-29T11:45:22;25.40;78.40
44775;DHT22;31340;51.402;0.016;2023-07-29T11:48:01;25.60;77.20
44775;DHT22;31340;51.402;0.016;2023-07-29T11:50:29;25.80;78.00
44775;DHT22;31340;51.402;0.016;2023-07-29T11:52:57;26.00;76.30
44775;DHT22;31340;51.402;0.016;2023-07-29T11:55:25;26.20;74.50
44775;DHT22;31340;51.402;0.016;2023-07-29T11:57:52;26.40;74.20
44775;DHT22;31340;51.402;0.016;2023-07-29T12:00:20;26.60;72.90
44775;DHT22;31340;51.402;0.016;2023-07-29T12:02:49;26.60;72.50
44775;DHT22;31340;51.402;0.016;2023-07-29T12:05:17;26.70;71.40
44775;DHT22;31340;51.402;0.016;2023-07-29T12:07:46;26.70;70.50
44775;DHT22;31340;51.402;0.016;2023-07-29T12:10:14;26.60;71.20
44775;DHT22;31340;51.402;0.016;2023-07-29T12:12:49;26.50;72.30
44775;DHT22;31340;51.402;0.016;2023-07-29T12:15:27;26.40;73.30
44775;DHT22;31340;51.402;0.016;2023-07-29T12:17:56;26.40;74.20
44775;DHT22;31340;51.402;0.016;2023-07-29T12:20:26;26.40;74.70
44775;DHT22;31340;51.402;0.016;2023-07-29T12:22:59;26.30;75.00
44775;DHT22;31340;51.402;0.016;2023-07-29T12:25:29;26.40;74.50
44775;DHT22;31340;51.402;0.016;2023-07-29T12:28:01;26.40;74.60
44775;DHT22;31340;51.402;0.016;2023-07-29T12:30:29;26.40;74.60
44775;DHT22;31340;51.402;0.016;2023-07-29T12:32:56;26.50;74.60
44775;DHT22;31340;51.402;0.016;2023-07-29T12:35:25;26.50;74.50
44775;DHT22;31340;51.402;0.016;2023-07-29T12:38:00;26.60;74.00
44775;DHT22;31340;51.402;0.016;2023-07-29T12:40:28;26.70;74.10
44775;DHT22;31340;51.402;0.016;2023-07-29T12:42:56;26.90;73.70
44775;DHT22;31340;51.402;0.016;2023-07-29T12:45:23;27.00;74.20
44775;DHT22;31340;51.402;0.016;2023-07-29T12:47:55;27.20;73.80
44775;DHT22;31340;51.402;0.016;2023-07-29T12:50:22;27.30;73.20
44775;DHT22;31340;51.402;0.016;2023-07-29T12:52:50;27.50;71.90
44775;DHT22;31340;51.402;0.016;2023-07-29T12:55:17;27.60;70.40
44775;DHT22;31340;51.402;0.016;2023-07-29T12:57:50;27.80;70.40
44775;DHT22;31340;51.402;0.016;2023-07-29T13:00:18;27.80;70.10
44775;DHT22;31340;51.402;0.016;2023-07-29T13:02:45;27.80;68.00
44775;DHT22;31340;51.402;0.016;2023-07-29T13:05:13;27.70;67.20
44775;DHT22;31340;51.402;0.016;2023-07-29T13:07:41;27.50;66.90
44775;DHT22;31340;51.402;0.016;2023-07-29T13:10:10;27.30;67.60
44775;DHT22;31340;51.402;0.016;2023-07-29T13:12:38;27.20;67.50
44775;DHT22;31340;51.402;0.016;2023-07-29T13:15:06;27.00;67.40
44775;DHT22;31340;51.402;0.016;2023-07-29T13:17:34;27.00;68.90
44775;DHT22;31340;51.402;0.016;2023-07-29T13:20:02;27.00;69.70
44775;DHT22;31340;51.402;0.016;2023-07-29T13:22:30;27.00;69.40
44775;DHT22;31340;51.402;0.016;2023-07-29T13:24:58;27.10;69.10
44775;DHT22;31340;51.402;0.016;2023-07-29T13:27:26;27.30;69.00
44775;DHT22;31340;51.402;0.016;2023-07-29T13:29:54;27.50;69.00
44775;DHT22;31340;51.402;0.016;2023-07-29T13:32:21;27.60;68.30
44775;DHT22;31340;51.402;0.016;2023-07-29T13:34:49;27.90;68.00
44775;DHT22;31340;51.402;0.016;2023-07-29T13:37:17;28.10;67.40
44775;DHT22;31340;51.402;0.016;2023-07-29T13:39:45;28.30;67.30
44775;DHT22;31340;51.402;0.016;2023-07-29T13:42:12;28.50;66.30
44775;DHT22;31340;51.402;0.016;2023-07-29T13:44:40;28.70;65.40
44775;DHT22;31340;51.402;0.016;2023-07-29T13:47:08;28.80;64.40
44775;DHT22;31340;51.402;0.016;2023-07-29T13:49:35;28.80;63.70
44775;DHT22;31340;51.402;0.016;2023-07-29T13:52:04;29.00;63.30
44775;DHT22;31340;51.402;0.016;2023-07-29T13:54:31;29.00;61.50
44775;DHT22;31340;51.402;0.016;2023-07-29T13:56:59;28.80;61.50
44775;DHT22;31340;51.402;0.016;2023-07-29T13:59:27;28.80;60.90
44775;DHT22;31340;51.402;0.016;2023-07-29T14:01:54;28.90;60.90
44775;DHT22;31340;51.402;0.016;2023-07-29T14:04:22;28.80;60.70
44775;DHT22;31340;51.402;0.016;2023-07-29T14:06:50;28.80;60.30
44775;DHT22;31340;51.402;0.016;2023-07-29T14:09:26;28.70;60.20
44775;DHT22;31340;51.402;0.016;2023-07-29T14:11:54;28.60;60.70
44775;DHT22;31340;51.402;0.016;2023-07-29T14:14:22;28.50;60.40
44775;DHT22;31340;51.402;0.016;2023-07-29T14:16:50;28.50;61.30
44775;DHT22;31340;51.402;0.016;2023-07-29T14:19:17;28.60;61.40
44775;DHT22;31340;51.402;0.016;2023-07-29T14:21:45;28.70;61.50
44775;DHT22;31340;51.402;0.016;2023-07-29T14:24:13;28.80;61.50
44775;DHT22;31340;51.402;0.016;2023-07-29T14:26:41;29.00;60.60
44775;DHT22;31340;51.402;0.016;2023-07-29T14:29:09;29.20;60.20
44775;DHT22;31340;51.402;0.016;2023-07-29T14:31:37;29.40;59.90
44775;DHT22;31340;51.402;0.016;2023-07-29T14:34:05;29.60;58.70
44775;DHT22;31340;51.402;0.016;2023-07-29T14:36:33;29.90;57.60
44775;DHT22;31340;51.402;0.016;2023-07-29T14:39:01;30.10;56.90
44775;DHT22;31340;51.402;0.016;2023-07-29T14:41:30;30.40;55.60
44775;DHT22;31340;51.402;0.016;2023-07-29T14:43:58;30.50;54.70
44775;DHT22;31340;51.402;0.016;2023-07-29T14:46:26;30.60;54.00
44775;DHT22;31340;51.402;0.016;2023-07-29T14:48:53;30.50;53.20
44775;DHT22;31340;51.402;0.016;2023-07-29T14:51:21;30.40;53.10
44775;DHT22;31340;51.402;0.016;2023-07-29T14:53:49;30.30;53.70
44775;DHT22;31340;51.402;0.016;2023-07-29T14:56:17;30.20;54.50
44775;DHT22;31340;51.402;0.016;2023-07-29T14:58:45;30.00;54.50
44775;DHT22;31340;51.402;0.016;2023-07-29T15:01:13;29.90;54.30
44775;DHT22;31340;51.402;0.016;2023-07-29T15:03:40;29.60;54.40
44775;DHT22;31340;51.402;0.016;2023-07-29T15:06:11;29.20;55.20
44775;DHT22;31340;51.402;0.016;2023-07-29T15:08:38;29.10;55.90
44775;DHT22;31340;51.402;0.016;2023-07-29T15:11:06;28.70;55.50
44775;DHT22;31340;51.402;0.016;2023-07-29T15:13:34;28.40;55.50
44775;DHT22;31340;51.402;0.016;2023-07-29T15:16:01;28.20;56.60
44775;DHT22;31340;51.402;0.016;2023-07-29T15:18:28;27.90;57.30
44775;DHT22;31340;51.402;0.016;2023-07-29T15:20:57;27.70;57.30
44775;DHT22;31340;51.402;0.016;2023-07-29T15:23:26;27.30;57.90
44775;DHT22;31340;51.402;0.016;2023-07-29T15:25:54;27.10;58.70
44775;DHT22;31340;51.402;0.016;2023-07-29T15:28:21;27.00;59.70
44775;DHT22;31340;51.402;0.016;2023-07-29T15:30:49;26.90;60.50
44775;DHT22;31340;51.402;0.016;2023-07-29T15:33:19;26.80;60.90
44775;DHT22;31340;51.402;0.016;2023-07-29T15:35:46;26.70;61.30
44775;DHT22;31340;51.402;0.016;2023-07-29T15:38:16;26.60;61.80
44775;DHT22;31340;51.402;0.016;2023-07-29T15:40:44;26.50;62.10
44775;DHT22;31340;51.402;0.016;2023-07-29T15:43:12;26.50;62.90
44775;DHT22;31340;51.402;0.016;2023-07-29T15:45:39;26.40;63.10
44775;DHT22;31340;51.402;0.016;2023-07-29T15:48:07;26.30;63.50